Time;durP1;ratioP1;P1;durP2;ratioP2;P2;SDS_P1;SDS_P2;PMS_P1;PMS_P2;Temp;Humidity;BMP_temperature;BMP_pressure;BME280_temperature;BME280_humidity;BME280_pressure;Samples;Min_cycle;Max_cycle;Signal;HPM_P1;HPM_P2
2022/08/14 00:02:03;;;;;;;;;;;20.30;70.20;;;;;;5033317;28;19926;-72
2022/08/14 00:04:32;;;;;;;;;;;20.40;71.20;;;;;;5034121;28;19913;-72
2022/08/14 00:06:58;;;;;;;;;;;20.50;71.30;;;;;;5033556;28;19913;-72
2022/08/14 00:09:27;;;;;;;;;;;20.80;71.10;;;;;;5032909;28;19963;-72
2022/08/14 00:11:55;;;;;;;;;;;21.00;70.10;;;;;;5033551;28;19921;-77
2022/08/14 00:14:21;;;;;;;;;;;21.00;69.90;;;;;;5033625;28;19924;-72
2022/08/14 00:16:49;;;;;;;;;;;21.00;70.60;;;;;;5033690;28;19922;-72
2022/08/14 00:19:15;;;;;;;;;;;21.10;70.30;;;;;;5033162;28;20393;-72
2022/08/14 00:21:41;;;;;;;;;;;21.20;70.50;;;;;;5033815;28;19913;-72
2022/08/14 00:24:07;;;;;;;;;;;21.20;70.60;;;;;;5033170;28;19960;-72
2022/08/14 00:26:33;;;;;;;;;;;21.10;70.40;;;;;;5033549;28;19913;-72
2022/08/14 00:28:59;;;;;;;;;;;20.90;71.90;;;;;;5032786;28;19913;-72
2022/08/14 00:31:26;;;;;;;;;;;20.90;71.60;;;;;;5033552;28;20265;-72
2022/08/14 00:33:52;;;;;;;;;;;20.80;72.20;;;;;;5033425;28;19913;-72
2022/08/14 00:36:22;;;;;;;;;;;20.50;73.20;;;;;;5033039;28;20294;-72
2022/08/14 00:38:48;;;;;;;;;;;20.30;72.90;;;;;;5034206;28;19924;-72
2022/08/14 00:41:14;;;;;;;;;;;19.90;73.00;;;;;;5032659;28;19957;-72
2022/08/14 00:43:40;;;;;;;;;;;19.70;73.00;;;;;;5033670;28;19924;-72
2022/08/14 00:46:07;;;;;;;;;;;19.30;72.10;;;;;;5032814;28;19913;-72
2022/08/14 00:48:34;;;;;;;;;;;19.10;73.20;;;;;;5032794;28;19920;-72
2022/08/14 00:51:01;;;;;;;;;;;18.80;75.60;;;;;;5032855;28;20044;-72
2022/08/14 00:53:27;;;;;;;;;;;18.70;78.80;;;;;;5033215;28;20255;-72
2022/08/14 00:55:55;;;;;;;;;;;18.70;80.10;;;;;;5031631;28;19913;-72
2022/08/14 00:58:30;;;;;;;;;;;18.60;81.30;;;;;;5032660;28;19909;-72
2022/08/14 01:00:57;;;;;;;;;;;18.50;83.40;;;;;;5033557;28;20290;-71
2022/08/14 01:03:23;;;;;;;;;;;18.60;83.30;;;;;;5032961;28;20366;-71
2022/08/14 01:05:51;;;;;;;;;;;18.60;82.20;;;;;;5033199;28;19913;-71
2022/08/14 01:08:21;;;;;;;;;;;18.60;82.10;;;;;;5032516;28;20137;-71
2022/08/14 01:10:50;;;;;;;;;;;18.40;84.00;;;;;;5033442;28;19929;-71
2022/08/14 01:13:18;;;;;;;;;;;18.30;85.00;;;;;;5032178;28;19924;-71
2022/08/14 01:15:44;;;;;;;;;;;18.30;86.10;;;;;;5032629;28;19913;-71
2022/08/14 01:21:10;;;;;;;;;;;18.20;87.70;;;;;;5032599;28;19913;-71
2022/08/14 01:23:38;;;;;;;;;;;18.10;89.20;;;;;;5032751;28;19921;-71
2022/08/14 01:26:04;;;;;;;;;;;17.90;90.20;;;;;;5032371;28;19913;-72
2022/08/14 01:28:35;;;;;;;;;;;17.90;90.60;;;;;;5032753;28;20397;-71
2022/08/14 01:31:04;;;;;;;;;;;17.80;91.40;;;;;;5032142;28;19920;-72
2022/08/14 01:33:30;;;;;;;;;;;17.70;91.10;;;;;;5031535;28;19920;-72
2022/08/14 01:35:59;;;;;;;;;;;17.70;91.10;;;;;;5031230;28;19913;-71
2022/08/14 01:38:27;;;;;;;;;;;17.60;91.50;;;;;;5033161;28;19921;-71
2022/08/14 01:40:53;;;;;;;;;;;17.60;91.90;;;;;;5032752;28;19921;-71
2022/08/14 01:43:19;;;;;;;;;;;17.50;93.20;;;;;;5035044;28;19965;-72
2022/08/14 01:45:50;;;;;;;;;;;17.30;93.70;;;;;;5035370;28;20390;-71
2022/08/14 01:48:16;;;;;;;;;;;17.30;94.60;;;;;;5032113;28;20283;-71
2022/08/14 01:50:42;;;;;;;;;;;17.30;95.10;;;;;;5031093;28;19913;-71
2022/08/14 01:53:08;;;;;;;;;;;17.40;95.20;;;;;;5032430;28;19913;-71
2022/08/14 01:55:35;;;;;;;;;;;17.40;95.20;;;;;;5030827;28;19920;-71
2022/08/14 01:58:01;;;;;;;;;;;17.40;95.70;;;;;;5031960;28;19917;-74
2022/08/14 02:00:27;;;;;;;;;;;17.40;95.70;;;;;;5032522;28;19913;-71
2022/08/14 02:02:54;;;;;;;;;;;17.50;95.60;;;;;;5033135;28;19914;-71
2022/08/14 02:05:23;;;;;;;;;;;17.50;97.20;;;;;;5032225;28;19917;-71
2022/08/14 02:07:49;;;;;;;;;;;17.40;96.50;;;;;;5032604;28;19914;-71
2022/08/14 02:10:16;;;;;;;;;;;17.50;95.90;;;;;;5031634;28;19952;-72
2022/08/14 02:12:45;;;;;;;;;;;17.50;95.40;;;;;;5031295;28;19921;-72
2022/08/14 02:15:11;;;;;;;;;;;17.50;95.30;;;;;;5031843;28;19917;-72
2022/08/14 02:17:37;;;;;;;;;;;17.40;95.20;;;;;;5032114;28;19943;-72
2022/08/14 02:20:07;;;;;;;;;;;17.40;95.70;;;;;;5031366;28;19913;-72
2022/08/14 02:22:33;;;;;;;;;;;17.30;95.80;;;;;;5031834;28;19913;-72
2022/08/14 02:25:00;;;;;;;;;;;17.20;96.20;;;;;;5031961;28;19913;-71
2022/08/14 02:27:28;;;;;;;;;;;17.10;96.40;;;;;;5031314;28;19936;-71
2022/08/14 02:29:55;;;;;;;;;;;17.00;97.00;;;;;;5031813;28;20235;-71
2022/08/14 02:32:21;;;;;;;;;;;16.90;97.10;;;;;;5032189;28;20294;-71
2022/08/14 02:34:47;;;;;;;;;;;16.80;97.20;;;;;;5035788;28;19913;-72
2022/08/14 02:37:14;;;;;;;;;;;16.70;97.60;;;;;;5034695;28;19917;-71
2022/08/14 02:39:44;;;;;;;;;;;16.60;98.70;;;;;;5035269;28;19920;-71
2022/08/14 02:42:14;;;;;;;;;;;16.60;99.20;;;;;;5034576;28;19920;-71
2022/08/14 02:44:41;;;;;;;;;;;16.70;98.30;;;;;;5035451;28;19925;-71
2022/08/14 02:47:07;;;;;;;;;;;16.70;98.20;;;;;;5034478;28;20278;-72
2022/08/14 02:49:33;;;;;;;;;;;16.70;99.00;;;;;;5034366;28;19909;-71
2022/08/14 02:51:59;;;;;;;;;;;16.70;99.90;;;;;;5035454;28;19936;-71
2022/08/14 02:54:26;;;;;;;;;;;16.60;99.60;;;;;;5034460;28;19920;-71
2022/08/14 02:56:56;;;;;;;;;;;16.60;99.40;;;;;;5035100;28;19917;-71
2022/08/14 02:59:27;;;;;;;;;;;16.60;99.40;;;;;;5034238;28;19920;-71
2022/08/14 03:01:53;;;;;;;;;;;16.60;99.90;;;;;;5035294;28;20282;-71
2022/08/14 03:04:19;;;;;;;;;;;16.60;99.90;;;;;;5034210;28;19920;-70
2022/08/14 03:06:45;;;;;;;;;;;16.50;99.70;;;;;;5035085;28;19999;-71
2022/08/14 03:09:11;;;;;;;;;;;16.50;99.90;;;;;;5034305;28;19913;-72
2022/08/14 03:11:38;;;;;;;;;;;16.50;99.80;;;;;;5034723;28;19928;-71
2022/08/14 03:14:04;;;;;;;;;;;16.50;99.90;;;;;;5034814;28;20365;-71
2022/08/14 03:16:34;;;;;;;;;;;16.40;99.90;;;;;;5034578;28;20362;-71
2022/08/14 03:19:01;;;;;;;;;;;16.30;99.90;;;;;;5034819;28;19913;-71
2022/08/14 03:21:29;;;;;;;;;;;16.30;99.90;;;;;;5034084;28;19909;-72
2022/08/14 03:26:28;;;;;;;;;;;16.20;99.90;;;;;;5034383;28;19924;-71
2022/08/14 03:28:54;;;;;;;;;;;16.20;99.90;;;;;;5034401;28;20378;-71
2022/08/14 03:31:22;;;;;;;;;;;16.10;99.90;;;;;;5033966;28;19913;-71
2022/08/14 03:33:49;;;;;;;;;;;16.10;99.90;;;;;;5034650;28;20282;-71
2022/08/14 03:36:16;;;;;;;;;;;16.00;99.90;;;;;;5033827;28;19924;-71
2022/08/14 03:38:42;;;;;;;;;;;15.90;99.90;;;;;;5034568;28;20282;-71
2022/08/14 03:41:15;;;;;;;;;;;15.80;99.90;;;;;;5033624;28;19932;-72
2022/08/14 03:43:42;;;;;;;;;;;15.80;99.90;;;;;;5034474;28;19924;-71
2022/08/14 03:46:12;;;;;;;;;;;15.90;99.90;;;;;;5033499;28;19940;-71
2022/08/14 03:48:41;;;;;;;;;;;15.80;99.90;;;;;;5033925;28;19917;-71
2022/08/14 03:51:08;;;;;;;;;;;15.80;99.90;;;;;;5033403;28;19913;-75
2022/08/14 03:53:37;;;;;;;;;;;15.80;99.90;;;;;;5034257;28;19914;-71
2022/08/14 03:56:04;;;;;;;;;;;15.90;99.90;;;;;;5034290;28;20270;-71
2022/08/14 03:58:31;;;;;;;;;;;15.70;99.90;;;;;;5033562;28;19921;-71
2022/08/14 04:00:58;;;;;;;;;;;15.70;99.90;;;;;;5034325;28;19917;-72
2022/08/14 04:03:25;;;;;;;;;;;15.80;99.90;;;;;;5033647;28;19945;-71
2022/08/14 04:05:51;;;;;;;;;;;15.70;99.90;;;;;;5033804;28;19917;-71
2022/08/14 04:08:18;;;;;;;;;;;15.70;99.90;;;;;;5033185;28;19924;-71
2022/08/14 04:10:45;;;;;;;;;;;15.60;99.90;;;;;;5033952;28;19922;-71
2022/08/14 04:13:12;;;;;;;;;;;15.60;99.90;;;;;;5033822;28;19932;-71
2022/08/14 04:15:37;;;;;;;;;;;15.60;99.90;;;;;;5033580;28;20313;-71
2022/08/14 04:18:05;;;;;;;;;;;15.60;99.90;;;;;;5033466;28;19929;-71
2022/08/14 04:20:31;;;;;;;;;;;15.50;99.90;;;;;;5033047;28;19909;-71
2022/08/14 04:22:57;;;;;;;;;;;15.40;99.90;;;;;;5033375;28;19940;-71
2022/08/14 04:25:23;;;;;;;;;;;15.40;99.90;;;;;;5032943;28;19991;-71
2022/08/14 04:27:49;;;;;;;;;;;15.30;99.90;;;;;;5033315;28;19913;-71
2022/08/14 04:30:15;;;;;;;;;;;15.40;99.90;;;;;;5032942;28;20282;-71
2022/08/14 04:32:41;;;;;;;;;;;15.50;99.90;;;;;;5033307;28;19913;-71
2022/08/14 04:35:09;;;;;;;;;;;15.50;99.90;;;;;;5033168;28;20008;-71
2022/08/14 04:45:49;;;;;;;;;;;15.70;99.90;;;;;;5033125;28;19914;-71
2022/08/14 04:48:16;;;;;;;;;;;15.90;99.90;;;;;;5032672;28;19913;-71
2022/08/14 04:50:44;;;;;;;;;;;16.00;99.90;;;;;;5033574;28;19921;-71
2022/08/14 04:53:11;;;;;;;;;;;16.30;99.90;;;;;;5033287;28;20408;-71
2022/08/14 04:55:39;;;;;;;;;;;16.30;99.90;;;;;;5032486;28;19917;-71
2022/08/14 04:58:05;;;;;;;;;;;16.30;99.90;;;;;;5033064;28;19921;-71
2022/08/14 05:00:31;;;;;;;;;;;16.50;99.90;;;;;;5032151;28;20087;-71
2022/08/14 05:02:57;;;;;;;;;;;17.10;99.90;;;;;;5033183;28;19924;-70
2022/08/14 05:05:23;;;;;;;;;;;17.90;98.90;;;;;;5032146;28;20347;-72
2022/08/14 05:07:50;;;;;;;;;;;18.90;97.00;;;;;;5032803;28;19920;-72
2022/08/14 05:10:22;;;;;;;;;;;20.10;93.30;;;;;;5031944;28;19920;-72
2022/08/14 05:12:49;;;;;;;;;;;20.70;87.30;;;;;;5033607;28;19925;-72
2022/08/14 05:15:15;;;;;;;;;;;21.00;86.00;;;;;;5031964;28;19918;-72
2022/08/14 05:17:42;;;;;;;;;;;21.80;79.40;;;;;;5032267;28;20309;-72
2022/08/14 05:20:08;;;;;;;;;;;22.40;75.90;;;;;;5032781;28;19913;-72
2022/08/14 05:22:34;;;;;;;;;;;22.80;74.00;;;;;;5031642;28;19909;-72
2022/08/14 05:25:02;;;;;;;;;;;23.50;70.50;;;;;;5032778;28;19920;-72
2022/08/14 05:27:28;;;;;;;;;;;23.90;68.40;;;;;;5031826;28;19921;-72
2022/08/14 05:29:55;;;;;;;;;;;24.10;68.20;;;;;;5032667;28;20286;-72
2022/08/14 05:32:22;;;;;;;;;;;24.50;67.10;;;;;;5031930;28;19916;-73
2022/08/14 05:34:48;;;;;;;;;;;25.10;65.40;;;;;;5032565;28;20367;-72
2022/08/14 05:37:14;;;;;;;;;;;25.20;63.60;;;;;;5031913;28;19964;-74
2022/08/14 05:39:40;;;;;;;;;;;24.50;66.30;;;;;;5032503;28;19920;-72
2022/08/14 05:42:06;;;;;;;;;;;24.10;67.60;;;;;;5031836;28;20385;-72
2022/08/14 05:44:32;;;;;;;;;;;23.60;69.50;;;;;;5032043;28;19918;-72
2022/08/14 05:46:58;;;;;;;;;;;23.60;69.80;;;;;;5032151;28;19917;-73
2022/08/14 05:49:25;;;;;;;;;;;23.20;72.30;;;;;;5031710;28;19913;-73
2022/08/14 05:51:51;;;;;;;;;;;23.40;72.00;;;;;;5032261;28;19920;-73
2022/08/14 05:54:17;;;;;;;;;;;23.60;72.60;;;;;;5031464;28;19920;-73
2022/08/14 05:56:43;;;;;;;;;;;24.00;71.00;;;;;;5031952;28;19912;-72
2022/08/14 05:59:10;;;;;;;;;;;24.30;70.40;;;;;;5032081;28;20292;-72
2022/08/14 06:01:36;;;;;;;;;;;24.90;68.10;;;;;;5031525;28;19920;-73
2022/08/14 06:04:02;;;;;;;;;;;25.80;66.90;;;;;;5032293;28;20314;-70
2022/08/14 06:06:28;;;;;;;;;;;25.90;63.40;;;;;;5033779;28;19924;-72
2022/08/14 06:08:54;;;;;;;;;;;25.60;64.60;;;;;;5034769;28;19913;-72
2022/08/14 06:11:20;;;;;;;;;;;25.60;66.10;;;;;;5035332;28;20012;-72
2022/08/14 06:13:46;;;;;;;;;;;25.20;64.60;;;;;;5036014;28;19917;-72
2022/08/14 06:16:16;;;;;;;;;;;25.00;65.70;;;;;;5036405;28;19913;-72
2022/08/14 06:18:42;;;;;;;;;;;24.60;67.50;;;;;;5037183;28;19921;-72
2022/08/14 06:21:08;;;;;;;;;;;25.00;66.80;;;;;;5037058;28;19913;-72
2022/08/14 06:23:34;;;;;;;;;;;24.90;66.80;;;;;;5035347;28;19920;-72
2022/08/14 06:26:00;;;;;;;;;;;25.10;66.50;;;;;;5035868;28;19910;-73
2022/08/14 06:28:26;;;;;;;;;;;25.30;65.30;;;;;;5034967;28;20007;-73
2022/08/14 06:30:52;;;;;;;;;;;25.60;64.80;;;;;;5035812;28;19913;-72
2022/08/14 06:33:19;;;;;;;;;;;26.00;63.40;;;;;;5035022;28;19924;-73
2022/08/14 06:35:46;;;;;;;;;;;26.60;64.00;;;;;;5035899;28;19916;-73
2022/08/14 06:38:16;;;;;;;;;;;27.30;59.80;;;;;;5035592;28;20255;-72
2022/08/14 06:40:42;;;;;;;;;;;27.10;59.00;;;;;;5035313;28;19913;-73
2022/08/14 06:43:10;;;;;;;;;;;26.80;59.70;;;;;;5035528;28;19928;-72
2022/08/14 06:45:37;;;;;;;;;;;27.00;59.50;;;;;;5034840;28;20362;-72
2022/08/14 06:48:04;;;;;;;;;;;27.00;58.60;;;;;;5035358;28;19909;-72
2022/08/14 06:50:30;;;;;;;;;;;27.10;60.80;;;;;;5035166;28;19976;-73
2022/08/14 06:52:57;;;;;;;;;;;27.20;58.00;;;;;;5035387;28;19917;-73
2022/08/14 06:55:23;;;;;;;;;;;26.40;59.80;;;;;;5034536;28;19928;-72
2022/08/14 06:57:50;;;;;;;;;;;27.10;58.50;;;;;;5035345;28;19929;-72
2022/08/14 07:00:23;;;;;;;;;;;27.30;58.80;;;;;;5035467;28;19913;-73
2022/08/14 07:05:47;;;;;;;;;;;27.20;57.60;;;;;;5034611;28;19913;-73
2022/08/14 07:08:13;;;;;;;;;;;27.60;56.70;;;;;;5034951;28;19920;-73
2022/08/14 07:10:41;;;;;;;;;;;27.80;55.90;;;;;;5034127;28;20262;-73
2022/08/14 07:13:07;;;;;;;;;;;28.20;55.60;;;;;;5034993;28;19925;-72
2022/08/14 07:15:33;;;;;;;;;;;29.40;55.60;;;;;;5034200;28;19913;-73
2022/08/14 07:18:00;;;;;;;;;;;29.80;52.90;;;;;;5033843;28;19929;-72
2022/08/14 07:20:27;;;;;;;;;;;30.40;52.80;;;;;;5034173;28;19913;-73
2022/08/14 07:22:57;;;;;;;;;;;31.10;52.20;;;;;;5034648;28;19913;-71
2022/08/14 07:25:23;;;;;;;;;;;30.00;51.50;;;;;;5033965;28;19936;-72
2022/08/14 07:27:50;;;;;;;;;;;30.30;51.70;;;;;;5034662;28;19913;-71
2022/08/14 07:30:16;;;;;;;;;;;30.60;51.50;;;;;;5034468;28;20397;-71
2022/08/14 07:32:42;;;;;;;;;;;30.70;51.10;;;;;;5033637;28;19913;-71
2022/08/14 07:35:08;;;;;;;;;;;30.20;51.40;;;;;;5034523;28;19913;-71
2022/08/14 07:37:34;;;;;;;;;;;30.30;52.70;;;;;;5033594;28;19992;-71
2022/08/14 07:40:01;;;;;;;;;;;30.70;50.80;;;;;;5034597;28;19913;-71
2022/08/14 07:42:27;;;;;;;;;;;30.90;50.70;;;;;;5033629;28;19913;-71
2022/08/14 07:44:53;;;;;;;;;;;30.20;51.70;;;;;;5034532;28;19917;-71
2022/08/14 07:47:19;;;;;;;;;;;30.80;51.00;;;;;;5033674;28;20281;-71
2022/08/14 07:49:52;;;;;;;;;;;30.20;51.10;;;;;;5033225;28;19920;-71
2022/08/14 07:52:18;;;;;;;;;;;30.00;51.20;;;;;;5033443;28;20254;-71
2022/08/14 07:54:44;;;;;;;;;;;29.70;52.10;;;;;;5033725;28;19949;-71
2022/08/14 07:57:10;;;;;;;;;;;30.70;52.00;;;;;;5034218;28;19920;-71
2022/08/14 07:59:37;;;;;;;;;;;32.00;49.00;;;;;;5032676;28;19910;-72
2022/08/14 08:02:03;;;;;;;;;;;32.70;48.70;;;;;;5034069;28;19913;-72
2022/08/14 08:04:30;;;;;;;;;;;32.10;48.10;;;;;;5033316;28;20271;-72
2022/08/14 08:06:56;;;;;;;;;;;32.10;48.50;;;;;;5033950;28;19913;-72
2022/08/14 08:09:23;;;;;;;;;;;32.90;47.50;;;;;;5033299;28;20397;-71
2022/08/14 08:11:51;;;;;;;;;;;33.20;46.80;;;;;;5033834;28;19921;-72
2022/08/14 08:14:18;;;;;;;;;;;32.40;45.40;;;;;;5033804;28;19917;-71
2022/08/14 08:16:46;;;;;;;;;;;31.40;46.90;;;;;;5032782;28;20389;-71
2022/08/14 08:19:12;;;;;;;;;;;32.80;46.60;;;;;;5033598;28;19917;-72
2022/08/14 08:21:38;;;;;;;;;;;33.30;46.20;;;;;;5032719;28;19913;-72
2022/08/14 08:24:05;;;;;;;;;;;34.00;45.70;;;;;;5033751;28;20354;-72
2022/08/14 08:26:31;;;;;;;;;;;35.20;45.30;;;;;;5031280;28;19913;-72
2022/08/14 08:28:57;;;;;;;;;;;35.40;44.20;;;;;;5032961;28;19924;-72
2022/08/14 08:31:25;;;;;;;;;;;35.20;44.00;;;;;;5032833;28;19913;-75
2022/08/14 08:33:51;;;;;;;;;;;34.40;44.40;;;;;;5032806;28;19913;-72
2022/08/14 08:36:17;;;;;;;;;;;33.80;44.90;;;;;;5033019;28;19909;-71
2022/08/14 08:38:45;;;;;;;;;;;33.00;46.40;;;;;;5014691;28;19935;-72
2022/08/14 08:41:11;;;;;;;;;;;34.00;44.40;;;;;;5033238;28;20282;-72
2022/08/14 08:43:37;;;;;;;;;;;32.90;44.90;;;;;;5032471;28;19921;-72
2022/08/14 08:46:14;;;;;;;;;;;31.20;46.40;;;;;;5032773;28;20302;-71
2022/08/14 08:48:47;;;;;;;;;;;31.80;46.20;;;;;;5032226;28;20397;-72
2022/08/14 08:51:21;;;;;;;;;;;32.50;47.60;;;;;;5032952;28;19920;-72
2022/08/14 08:53:55;;;;;;;;;;;32.30;44.80;;;;;;5032490;28;19920;-72
2022/08/14 08:56:31;;;;;;;;;;;32.30;45.30;;;;;;5033177;28;19923;-72
2022/08/14 08:58:57;;;;;;;;;;;31.40;46.40;;;;;;5033150;28;19925;-71
2022/08/14 09:01:26;;;;;;;;;;;32.70;45.70;;;;;;5033036;28;20351;-71
2022/08/14 09:04:00;;;;;;;;;;;32.50;46.30;;;;;;5033057;28;20268;-72
2022/08/14 09:06:26;;;;;;;;;;;33.40;45.40;;;;;;5032651;28;20260;-74
2022/08/14 09:08:52;;;;;;;;;;;32.90;45.30;;;;;;5033056;28;20378;-72
2022/08/14 09:11:18;;;;;;;;;;;33.30;45.00;;;;;;5032366;28;19952;-71
2022/08/14 09:13:44;;;;;;;;;;;33.40;45.90;;;;;;5032184;28;20385;-72
2022/08/14 09:16:10;;;;;;;;;;;32.80;43.40;;;;;;5032401;28;19924;-72
2022/08/14 09:18:39;;;;;;;;;;;31.70;44.00;;;;;;5031769;28;19921;-72
2022/08/14 09:21:06;;;;;;;;;;;32.30;44.40;;;;;;5032575;28;19913;-72
2022/08/14 09:23:32;;;;;;;;;;;33.40;43.10;;;;;;5031764;28;20289;-72
2022/08/14 09:25:58;;;;;;;;;;;34.30;41.20;;;;;;5032785;28;19913;-71
2022/08/14 09:28:24;;;;;;;;;;;34.00;41.30;;;;;;5032339;28;19963;-72
2022/08/14 09:30:54;;;;;;;;;;;30.80;44.30;;;;;;5031827;28;19999;-71
2022/08/14 09:33:25;;;;;;;;;;;31.50;43.70;;;;;;5030777;28;19913;-71
2022/08/14 09:36:00;;;;;;;;;;;31.80;44.50;;;;;;5031899;28;20377;-71
2022/08/14 09:38:50;;;;;;;;;;;32.90;42.80;;;;;;5032311;28;19921;-71
2022/08/14 09:41:34;;;;;;;;;;;33.60;41.90;;;;;;5034480;28;19921;-71
2022/08/14 09:44:13;;;;;;;;;;;34.00;41.80;;;;;;5038946;28;19917;-71
2022/08/14 09:46:39;;;;;;;;;;;34.10;41.30;;;;;;5036934;28;20266;-71
2022/08/14 09:49:06;;;;;;;;;;;34.30;40.60;;;;;;5038934;28;20389;-71
2022/08/14 09:51:35;;;;;;;;;;;33.30;40.90;;;;;;5038487;28;19913;-72
2022/08/14 09:54:09;;;;;;;;;;;32.80;41.80;;;;;;5039021;28;19913;-71
2022/08/14 09:56:45;;;;;;;;;;;32.80;41.60;;;;;;5038522;28;19913;-71
2022/08/14 09:59:13;;;;;;;;;;;33.20;42.00;;;;;;5038993;28;20267;-71
2022/08/14 10:01:40;;;;;;;;;;;33.10;41.20;;;;;;5038063;28;19917;-71
2022/08/14 10:04:17;;;;;;;;;;;33.20;41.50;;;;;;5037585;28;20389;-71
2022/08/14 10:06:46;;;;;;;;;;;32.30;42.40;;;;;;5038068;28;19913;-71
2022/08/14 10:09:12;;;;;;;;;;;32.90;42.40;;;;;;5038628;28;19913;-71
2022/08/14 10:11:39;;;;;;;;;;;32.70;41.70;;;;;;5038113;28;19928;-72
2022/08/14 10:14:15;;;;;;;;;;;32.70;41.50;;;;;;5038560;28;19925;-71
2022/08/14 10:16:43;;;;;;;;;;;32.90;41.60;;;;;;5038035;28;19969;-71
2022/08/14 10:19:11;;;;;;;;;;;32.50;40.90;;;;;;5038738;28;19925;-72
2022/08/14 10:21:38;;;;;;;;;;;31.00;42.10;;;;;;5037992;28;19909;-72
2022/08/14 10:24:07;;;;;;;;;;;30.70;43.30;;;;;;5038553;28;19920;-72
2022/08/14 10:26:33;;;;;;;;;;;30.90;42.70;;;;;;5037787;28;20290;-72
2022/08/14 10:29:08;;;;;;;;;;;31.30;42.10;;;;;;5038565;28;19917;-71
2022/08/14 10:31:34;;;;;;;;;;;31.00;41.80;;;;;;5038472;28;19920;-72
2022/08/14 10:34:05;;;;;;;;;;;30.50;42.80;;;;;;5038726;28;19913;-72
2022/08/14 10:36:34;;;;;;;;;;;30.60;42.20;;;;;;5038301;28;20285;-75
2022/08/14 10:39:06;;;;;;;;;;;30.50;41.50;;;;;;5038460;28;19996;-72
2022/08/14 10:41:40;;;;;;;;;;;30.40;42.00;;;;;;5037874;28;19921;-72
2022/08/14 10:44:16;;;;;;;;;;;30.40;43.50;;;;;;5038692;28;19918;-72
2022/08/14 10:46:42;;;;;;;;;;;30.80;41.70;;;;;;5036858;28;19913;-71
2022/08/14 10:49:16;;;;;;;;;;;31.00;42.20;;;;;;5038521;28;20281;-72
2022/08/14 10:51:42;;;;;;;;;;;30.80;41.70;;;;;;5038352;28;19921;-71
2022/08/14 10:54:09;;;;;;;;;;;30.90;41.60;;;;;;5037530;28;20362;-70
2022/08/14 10:56:35;;;;;;;;;;;30.80;41.30;;;;;;5036345;28;19913;-72
2022/08/14 10:59:01;;;;;;;;;;;30.40;42.00;;;;;;5035003;28;20259;-71
2022/08/14 11:01:34;;;;;;;;;;;30.60;42.80;;;;;;5035160;28;20386;-71
2022/08/14 11:04:00;;;;;;;;;;;30.70;42.90;;;;;;5035052;28;20358;-71
2022/08/14 11:06:27;;;;;;;;;;;31.00;42.20;;;;;;5034982;28;20287;-72
2022/08/14 11:08:54;;;;;;;;;;;31.10;41.60;;;;;;5034265;28;19924;-72
2022/08/14 11:11:21;;;;;;;;;;;31.10;41.00;;;;;;5035038;28;19917;-72
2022/08/14 11:13:49;;;;;;;;;;;31.00;42.00;;;;;;5034322;28;19917;-72
2022/08/14 11:16:15;;;;;;;;;;;31.10;41.40;;;;;;5034768;28;19913;-72
2022/08/14 11:18:46;;;;;;;;;;;31.40;40.40;;;;;;5033981;28;19921;-72
2022/08/14 11:21:14;;;;;;;;;;;31.00;39.90;;;;;;5034915;28;20269;-72
2022/08/14 11:23:40;;;;;;;;;;;31.10;40.80;;;;;;5034045;28;19917;-72
2022/08/14 11:26:06;;;;;;;;;;;30.90;41.30;;;;;;5034802;28;19913;-72
2022/08/14 11:28:33;;;;;;;;;;;30.40;41.50;;;;;;5035132;28;19913;-72
2022/08/14 11:31:01;;;;;;;;;;;30.40;41.10;;;;;;5034797;28;20306;-72
2022/08/14 11:33:33;;;;;;;;;;;30.40;41.40;;;;;;5034650;28;20309;-71
2022/08/14 11:36:00;;;;;;;;;;;30.50;41.50;;;;;;5033811;28;19913;-72
2022/08/14 11:38:27;;;;;;;;;;;31.00;41.10;;;;;;5034566;28;19993;-72
2022/08/14 11:40:55;;;;;;;;;;;31.00;41.00;;;;;;5034007;28;19916;-71
2022/08/14 11:43:24;;;;;;;;;;;30.50;41.30;;;;;;5034402;28;19917;-71
2022/08/14 11:45:50;;;;;;;;;;;30.70;41.40;;;;;;5033808;28;19924;-71
2022/08/14 11:48:23;;;;;;;;;;;30.60;41.10;;;;;;5034156;28;19909;-72
2022/08/14 11:50:53;;;;;;;;;;;30.70;41.30;;;;;;5033804;28;19924;-72
2022/08/14 11:53:29;;;;;;;;;;;31.10;41.80;;;;;;5034256;28;19917;-72
2022/08/14 11:55:56;;;;;;;;;;;31.60;41.20;;;;;;5033608;28;20355;-72
2022/08/14 11:58:26;;;;;;;;;;;31.90;40.40;;;;;;5034053;28;19922;-72
2022/08/14 12:00:57;;;;;;;;;;;32.00;39.80;;;;;;5033192;28;19964;-72
2022/08/14 12:03:33;;;;;;;;;;;32.40;39.70;;;;;;5033983;28;19920;-72
2022/08/14 12:06:02;;;;;;;;;;;32.50;39.80;;;;;;5033393;28;19936;-71
2022/08/14 12:08:32;;;;;;;;;;;32.30;39.00;;;;;;5033825;28;19913;-71
2022/08/14 12:10:58;;;;;;;;;;;32.40;39.50;;;;;;5032930;28;19913;-71
2022/08/14 12:13:28;;;;;;;;;;;32.00;39.20;;;;;;5034057;28;19932;-72
2022/08/14 12:15:59;;;;;;;;;;;32.00;39.40;;;;;;5032791;28;19913;-72
2022/08/14 12:18:31;;;;;;;;;;;31.90;38.80;;;;;;5033272;28;19928;-71
2022/08/14 12:20:57;;;;;;;;;;;32.00;38.90;;;;;;5033093;28;20370;-71
2022/08/14 12:23:24;;;;;;;;;;;32.30;39.30;;;;;;5033555;28;19928;-72
2022/08/14 12:26:03;;;;;;;;;;;32.60;38.90;;;;;;5032669;28;19924;-71
2022/08/14 12:28:29;;;;;;;;;;;32.90;39.00;;;;;;5033448;28;19913;-72
2022/08/14 12:30:55;;;;;;;;;;;32.90;38.70;;;;;;5032918;28;19910;-72
2022/08/14 12:33:24;;;;;;;;;;;32.90;38.70;;;;;;5033376;28;19921;-72
2022/08/14 12:35:51;;;;;;;;;;;33.00;38.50;;;;;;5032798;28;19924;-72
2022/08/14 12:38:18;;;;;;;;;;;33.00;38.60;;;;;;5033100;28;19932;-72
2022/08/14 12:40:48;;;;;;;;;;;32.50;38.30;;;;;;5032564;28;19913;-72
2022/08/14 12:43:16;;;;;;;;;;;32.30;39.30;;;;;;5033274;28;19924;-72
2022/08/14 12:45:48;;;;;;;;;;;32.30;38.50;;;;;;5032477;28;19920;-72
2022/08/14 12:48:15;;;;;;;;;;;32.50;38.40;;;;;;5033056;28;19936;-72
2022/08/14 12:50:41;;;;;;;;;;;32.80;39.00;;;;;;5032461;28;19913;-73
2022/08/14 12:53:08;;;;;;;;;;;33.10;38.40;;;;;;5032845;28;20335;-72
2022/08/14 12:55:35;;;;;;;;;;;32.20;38.10;;;;;;5033280;28;19914;-72
2022/08/14 12:58:05;;;;;;;;;;;32.50;38.60;;;;;;5032111;28;19913;-72
2022/08/14 13:00:33;;;;;;;;;;;32.90;38.50;;;;;;5033087;28;19913;-72
2022/08/14 13:02:59;;;;;;;;;;;33.00;37.90;;;;;;5032045;28;19913;-72
2022/08/14 13:05:29;;;;;;;;;;;33.40;38.20;;;;;;5032735;28;19913;-72
2022/08/14 13:07:56;;;;;;;;;;;33.60;38.30;;;;;;5032421;28;19913;-71
2022/08/14 13:10:22;;;;;;;;;;;33.30;37.50;;;;;;5033096;28;19913;-72
2022/08/14 13:12:50;;;;;;;;;;;32.40;38.00;;;;;;5032374;28;20354;-72
2022/08/14 13:15:18;;;;;;;;;;;32.30;38.60;;;;;;5032724;28;19917;-72
2022/08/14 13:17:46;;;;;;;;;;;32.60;38.90;;;;;;5031814;28;19909;-72
2022/08/14 13:20:15;;;;;;;;;;;33.00;38.00;;;;;;5032556;28;19936;-71
2022/08/14 13:22:43;;;;;;;;;;;32.80;38.10;;;;;;5032786;28;19928;-71
2022/08/14 13:25:11;;;;;;;;;;;33.20;38.50;;;;;;5032350;28;19932;-71
2022/08/14 13:27:37;;;;;;;;;;;33.00;37.90;;;;;;5032857;28;19913;-72
2022/08/14 13:30:07;;;;;;;;;;;32.30;38.20;;;;;;5031955;28;20008;-72
2022/08/14 13:32:38;;;;;;;;;;;32.50;38.30;;;;;;5032653;28;19913;-72
2022/08/14 13:35:05;;;;;;;;;;;33.00;37.90;;;;;;5031795;28;19921;-72
2022/08/14 13:37:31;;;;;;;;;;;33.10;38.60;;;;;;5032278;28;19917;-72
2022/08/14 13:39:57;;;;;;;;;;;33.40;37.60;;;;;;5031617;28;19925;-72
2022/08/14 13:42:26;;;;;;;;;;;32.70;37.30;;;;;;5032870;28;19914;-72
2022/08/14 13:44:53;;;;;;;;;;;32.70;38.30;;;;;;5031923;28;19921;-72
2022/08/14 13:47:20;;;;;;;;;;;32.70;37.10;;;;;;5032444;28;20334;-71
2022/08/14 13:49:46;;;;;;;;;;;32.60;37.60;;;;;;5031692;28;20298;-72
2022/08/14 13:52:16;;;;;;;;;;;32.70;37.70;;;;;;5032633;28;20366;-71
2022/08/14 13:54:47;;;;;;;;;;;32.90;36.90;;;;;;5032015;28;19976;-72
2022/08/14 13:57:16;;;;;;;;;;;32.80;37.10;;;;;;5032435;28;19913;-73
2022/08/14 13:59:43;;;;;;;;;;;32.80;37.40;;;;;;5031787;28;19924;-72
2022/08/14 14:02:09;;;;;;;;;;;33.20;37.30;;;;;;5032039;28;19920;-72
2022/08/14 14:04:43;;;;;;;;;;;33.30;37.50;;;;;;5032271;28;19971;-71
2022/08/14 14:07:11;;;;;;;;;;;33.70;37.60;;;;;;5030784;28;19946;-72
2022/08/14 14:09:38;;;;;;;;;;;33.60;36.80;;;;;;5032104;28;19916;-71
2022/08/14 14:12:07;;;;;;;;;;;34.00;37.10;;;;;;5030939;28;20299;-72
2022/08/14 14:14:35;;;;;;;;;;;34.10;37.20;;;;;;5031744;28;19917;-72
2022/08/14 14:17:03;;;;;;;;;;;34.20;37.40;;;;;;5031209;28;20362;-71
2022/08/14 14:19:30;;;;;;;;;;;33.90;36.40;;;;;;5031663;28;20365;-71
2022/08/14 14:21:56;;;;;;;;;;;33.60;36.50;;;;;;5031163;28;19928;-71
2022/08/14 14:24:22;;;;;;;;;;;33.40;36.50;;;;;;5031925;28;19920;-72
2022/08/14 14:26:48;;;;;;;;;;;33.10;37.10;;;;;;5031138;28;20246;-72
2022/08/14 14:29:16;;;;;;;;;;;32.60;36.50;;;;;;5034560;28;19913;-72
2022/08/14 14:31:46;;;;;;;;;;;32.50;36.90;;;;;;5035546;28;19910;-72
2022/08/14 14:34:13;;;;;;;;;;;32.70;36.80;;;;;;5035640;28;20350;-72
2022/08/14 14:36:42;;;;;;;;;;;32.90;37.60;;;;;;5035391;28;20294;-72